Time;durP1;ratioP1;P1;durP2;ratioP2;P2;SDS_P1;SDS_P2;PMS_P1;PMS_P2;Temp;Humidity;BMP_temperature;BMP_pressure;BME280_temperature;BME280_humidity;BME280_pressure;Samples;Min_cycle;Max_cycle;Signal;HPM_P1;HPM_P2
2022/12/26 00:01:00;;;;;;;;;7.00;7.00;;;;;13.57;72.38;100624.63;5054183;28;46002;-63
2022/12/26 00:03:26;;;;;;;;;6.00;6.00;;;;;13.51;72.12;100609.03;5054195;28;45747;-63
2022/12/26 00:05:51;;;;;;;;;6.67;5.33;;;;;13.54;71.95;100627.41;5047859;28;45438;-63
2022/12/26 00:08:17;;;;;;;;;6.67;6.67;;;;;13.52;72.39;100631.06;5046920;28;45584;-63
2022/12/26 00:10:42;;;;;;;;;8.00;8.00;;;;;13.51;72.26;100616.97;5054141;28;46641;-64
2022/12/26 00:13:08;;;;;;;;;6.00;6.00;;;;;13.55;72.44;100622.97;5054366;28;45553;-63
2022/12/26 00:15:33;;;;;;;;;6.33;6.33;;;;;13.38;72.27;100595.56;5054288;28;46108;-64
2022/12/26 00:17:59;;;;;;;;;6.33;6.00;;;;;13.53;72.50;100632.75;5047944;28;45602;-63
2022/12/26 00:20:24;;;;;;;;;6.00;6.00;;;;;13.48;72.89;100631.19;5053786;28;46462;-63
2022/12/26 00:22:49;;;;;;;;;7.00;6.00;;;;;13.51;72.44;100624.03;5054127;28;45443;-63
2022/12/26 00:25:15;;;;;;;;;6.00;6.00;;;;;13.46;72.17;100626.94;5054158;28;45469;-63
2022/12/26 00:27:40;;;;;;;;;5.00;5.00;;;;;13.48;72.96;100636.47;5053900;28;45431;-63
2022/12/26 00:30:06;;;;;;;;;7.00;7.00;;;;;13.52;72.52;100636.34;5054027;28;45526;-63
2022/12/26 00:32:32;;;;;;;;;7.00;6.00;;;;;13.45;72.78;100626.03;5053742;28;45501;-63
2022/12/26 00:34:57;;;;;;;;;6.00;6.00;;;;;13.46;72.56;100627.78;5052588;28;45463;-63
2022/12/26 00:37:22;;;;;;;;;7.00;6.33;;;;;13.44;72.73;100626.97;5053992;28;45478;-63
2022/12/26 00:39:48;;;;;;;;;11.00;7.67;;;;;13.45;72.77;100627.84;5052598;28;45414;-63
2022/12/26 00:42:13;;;;;;;;;6.67;6.00;;;;;13.43;72.93;100617.34;5056558;28;45560;-63
2022/12/26 00:44:38;;;;;;;;;5.33;4.33;;;;;13.44;73.14;100626.97;5055737;28;45418;-63
2022/12/26 00:47:04;;;;;;;;;5.00;5.00;;;;;13.41;72.44;100624.50;5047752;28;45518;-63
2022/12/26 00:49:29;;;;;;;;;3.00;3.00;;;;;13.35;72.58;100631.81;5052680;28;46142;-63
2022/12/26 00:51:54;;;;;;;;;5.67;4.00;;;;;13.36;72.83;100637.06;5057275;28;45478;-63
2022/12/26 00:54:20;;;;;;;;;6.00;3.00;;;;;13.36;72.64;100615.91;5057450;28;45475;-63
2022/12/26 00:56:45;;;;;;;;;4.00;4.00;;;;;13.42;72.37;100617.41;5056895;28;45639;-63
2022/12/26 00:59:11;;;;;;;;;2.33;2.33;;;;;13.37;72.55;100612.34;5056687;28;45537;-63
2022/12/26 01:01:36;;;;;;;;;3.00;3.00;;;;;13.37;72.60;100620.25;5057164;28;45497;-63
2022/12/26 01:04:02;;;;;;;;;2.00;2.00;;;;;13.29;71.78;100621.56;5057315;28;45469;-63
2022/12/26 01:06:27;;;;;;;;;7.00;4.00;;;;;13.27;72.42;100624.25;5045388;28;45493;-63
2022/12/26 01:08:53;;;;;;;;;4.67;3.67;;;;;13.28;72.69;100635.69;5054238;28;46433;-63
2022/12/26 01:11:38;;;;;;;;;8.33;5.00;;;;;13.30;72.14;100636.47;5057055;28;45504;-63
2022/12/26 01:14:05;;;;;;;;;3.33;3.00;;;;;13.32;72.80;100645.19;5056751;28;45485;-63
2022/12/26 01:16:30;;;;;;;;;2.33;2.33;;;;;13.31;73.01;100657.53;5052734;28;45489;-63
2022/12/26 01:18:55;;;;;;;;;3.00;3.00;;;;;13.28;72.65;100655.03;5052928;28;46361;-63
2022/12/26 01:21:21;;;;;;;;;2.67;2.67;;;;;13.27;72.53;100655.94;5056980;28;45469;-63
2022/12/26 01:23:46;;;;;;;;;4.33;3.00;;;;;13.14;72.82;100636.31;5057025;28;45495;-63
2022/12/26 01:26:11;;;;;;;;;3.67;3.00;;;;;13.24;72.36;100653.41;5056962;28;45458;-63
2022/12/26 01:28:37;;;;;;;;;3.33;2.00;;;;;13.25;72.21;100652.50;5056411;28;47979;-63
2022/12/26 01:31:05;;;;;;;;;3.00;3.00;;;;;13.25;72.60;100658.66;5056610;28;45517;-63
2022/12/26 01:33:31;;;;;;;;;3.67;2.67;;;;;13.16;72.67;100647.63;5057037;28;45474;-63
2022/12/26 01:35:57;;;;;;;;;5.00;4.00;;;;;13.18;72.88;100645.78;5056448;28;45486;-63
2022/12/26 01:38:23;;;;;;;;;2.00;2.00;;;;;13.16;72.12;100661.69;5055406;28;45530;-63
2022/12/26 01:41:15;;;;;;;;;3.33;3.33;;;;;13.21;72.37;100680.81;5056728;28;45540;-63
2022/12/26 01:44:02;;;;;;;;;2.00;2.00;;;;;13.23;72.58;100680.75;5056881;28;45504;-63
2022/12/26 01:46:38;;;;;;;;;4.00;2.00;;;;;13.21;72.53;100678.19;5053742;28;45587;-63
2022/12/26 01:49:16;;;;;;;;;2.00;2.00;;;;;13.22;72.39;100702.84;5054221;28;45700;-63
2022/12/26 01:51:46;;;;;;;;;4.00;3.00;;;;;13.22;72.44;100711.59;5055792;28;45435;-63
2022/12/26 01:54:12;;;;;;;;;3.67;2.00;;;;;13.22;72.54;100723.97;5054325;28;45508;-64
2022/12/26 01:56:42;;;;;;;;;1.00;1.00;;;;;13.23;72.72;100729.16;5056164;28;45522;-63
2022/12/26 01:59:12;;;;;;;;;1.00;1.00;;;;;13.25;72.39;100718.53;5056049;28;45481;-63
2022/12/26 02:01:40;;;;;;;;;3.67;3.67;;;;;13.26;72.34;100731.69;5056142;28;45468;-63
2022/12/26 02:06:55;;;;;;;;;3.33;3.00;;;;;13.24;72.55;100708.88;5041875;28;45407;-63
2022/12/26 02:09:21;;;;;;;;;2.00;2.00;;;;;13.26;72.39;100715.00;5056187;28;45581;-63
2022/12/26 02:11:53;;;;;;;;;1.67;1.67;;;;;13.20;72.31;100705.53;5056080;28;45469;-63
2022/12/26 02:14:19;;;;;;;;;2.00;2.00;;;;;13.24;72.17;100709.75;5055927;28;45506;-63
2022/12/26 02:16:45;;;;;;;;;3.00;3.00;;;;;13.24;72.49;100714.16;5050344;28;45629;-63
2022/12/26 02:19:26;;;;;;;;;2.33;1.67;;;;;13.23;72.08;100704.53;5055789;28;46208;-63
2022/12/26 02:22:20;;;;;;;;;1.67;1.00;;;;;13.18;72.38;100680.13;5055916;28;45548;-63
2022/12/26 02:24:45;;;;;;;;;1.67;1.67;;;;;13.23;72.13;100680.75;5056088;28;45618;-63
2022/12/26 02:27:17;;;;;;;;;1.33;1.00;;;;;13.23;71.76;100689.53;5055736;28;45474;-63
2022/12/26 02:29:57;;;;;;;;;1.00;1.00;;;;;13.24;72.02;100691.28;5055075;28;46577;-63
2022/12/26 02:32:44;;;;;;;;;1.00;1.00;;;;;13.22;72.08;100708.97;5055788;28;45525;-63
2022/12/26 02:35:51;;;;;;;;;3.00;1.33;;;;;13.23;72.04;100723.03;5054330;28;45442;-63
2022/12/26 02:38:53;;;;;;;;;2.00;2.00;;;;;13.21;72.07;100709.88;5053868;28;45494;-61
2022/12/26 02:41:47;;;;;;;;;1.00;1.00;;;;;13.07;72.55;100698.22;5053924;28;45521;-61
2022/12/26 02:47:11;;;;;;;;;2.00;1.00;;;;;13.18;72.43;100688.88;5043641;28;45499;-62
2022/12/26 03:14:28;;;;;;;;;1.67;1.67;;;;;13.17;72.56;100692.47;5054469;28;45410;-62
2022/12/26 03:17:21;;;;;;;;;2.00;1.00;;;;;13.16;72.59;100684.59;5052940;28;46784;-61
2022/12/26 03:20:02;;;;;;;;;2.00;2.00;;;;;13.17;72.59;100681.91;5053718;28;45786;-62
2022/12/26 03:22:42;;;;;;;;;1.00;1.00;;;;;13.17;72.70;100681.06;5040268;28;45436;-62
2022/12/26 03:28:03;;;;;;;;;0.67;0.67;;;;;13.13;72.69;100676.81;5054345;28;45904;-62
2022/12/26 03:35:57;;;;;;;;;2.00;2.00;;;;;13.13;72.63;100676.81;5047601;28;45552;-62
2022/12/26 03:38:57;;;;;;;;;1.00;1.00;;;;;13.11;72.78;100689.22;5054018;28;45490;-62
2022/12/26 04:19:59;;;;;;;;;1.00;1.00;;;;;13.07;72.53;100719.34;5042515;28;45460;-62
2022/12/26 04:45:21;;;;;;;;;2.00;2.00;;;;;13.05;72.94;100740.53;5050227;28;45541;-62
2022/12/26 04:50:32;;;;;;;;;0.00;0.00;;;;;13.06;73.18;100752.81;5053762;28;45452;-62
2022/12/26 04:52:58;;;;;;;;;5.00;2.67;;;;;13.02;72.53;100759.16;5053554;28;45481;-62
2022/12/26 04:55:28;;;;;;;;;1.00;1.00;;;;;13.02;72.93;100770.56;5053812;28;45414;-62
2022/12/26 04:57:55;;;;;;;;;1.00;1.00;;;;;13.04;72.73;100791.63;5053778;28;45688;-62
2022/12/26 05:00:23;;;;;;;;;0.67;0.67;;;;;13.00;72.92;100780.34;5053459;28;45456;-62
2022/12/26 05:11:26;;;;;;;;;1.00;1.00;;;;;13.02;72.46;100807.53;5054002;28;45532;-62
2022/12/26 05:13:53;;;;;;;;;1.00;1.00;;;;;12.99;72.68;100790.97;5053376;28;45526;-62
2022/12/26 05:30:05;;;;;;;;;2.67;1.00;;;;;12.88;72.80;100780.00;5056706;28;45515;-62
2022/12/26 05:35:14;;;;;;;;;0.67;0.67;;;;;12.80;72.56;100781.16;5056791;28;45540;-62
2022/12/26 05:37:39;;;;;;;;;1.33;1.00;;;;;12.75;72.29;100777.84;5056568;28;45656;-62
2022/12/26 05:40:05;;;;;;;;;1.33;1.33;;;;;12.75;72.62;100777.00;5056404;28;46545;-62
2022/12/26 05:42:31;;;;;;;;;0.00;0.00;;;;;12.70;72.27;100784.25;5056412;28;45428;-62
2022/12/26 05:44:56;;;;;;;;;0.67;0.67;;;;;12.74;72.15;100791.13;5053862;28;45401;-62
2022/12/26 05:47:21;;;;;;;;;0.00;0.00;;;;;12.75;72.40;100814.81;5048595;28;45497;-62
2022/12/26 05:49:47;;;;;;;;;1.00;1.00;;;;;12.75;72.49;100811.31;5055667;28;46389;-62
2022/12/26 05:52:12;;;;;;;;;0.67;0.67;;;;;12.70;72.13;100813.28;5056173;28;45446;-62
2022/12/26 05:54:37;;;;;;;;;1.33;1.33;;;;;12.75;72.36;100835.06;5056137;28;45491;-62
2022/12/26 05:57:03;;;;;;;;;1.33;0.00;;;;;12.73;72.20;100828.97;5041838;28;45508;-62
2022/12/26 05:59:29;;;;;;;;;1.33;1.33;;;;;12.71;71.84;100818.50;5055992;28;46310;-62
2022/12/26 06:01:54;;;;;;;;;1.33;1.00;;;;;12.69;70.99;100814.22;5056138;28;45484;-62
2022/12/26 06:04:20;;;;;;;;;1.00;1.00;;;;;12.68;71.46;100820.38;5056337;28;45540;-62
2022/12/26 06:06:45;;;;;;;;;1.00;1.00;;;;;12.65;71.78;100813.47;5054989;28;45521;-62
2022/12/26 06:09:10;;;;;;;;;0.00;0.00;;;;;12.49;71.35;100788.63;5055980;28;46187;-62
2022/12/26 06:11:36;;;;;;;;;1.67;1.67;;;;;12.64;71.78;100817.03;5056249;28;45437;-62
2022/12/26 06:14:01;;;;;;;;;1.00;1.00;;;;;12.67;70.81;100830.09;5056450;28;45432;-62
2022/12/26 06:16:27;;;;;;;;;1.33;1.00;;;;;12.68;70.80;100829.19;5050641;28;45564;-62
2022/12/26 06:18:56;;;;;;;;;2.00;2.00;;;;;12.66;70.84;100809.91;5055724;28;46051;-62
2022/12/26 06:21:22;;;;;;;;;2.00;2.00;;;;;12.69;70.72;100816.84;5055848;28;45960;-62
2022/12/26 06:23:48;;;;;;;;;0.00;0.00;;;;;12.68;71.00;100807.19;5055698;28;45504;-62
2022/12/26 06:26:15;;;;;;;;;1.00;1.00;;;;;12.63;70.60;100802.13;5055703;28;45533;-63
2022/12/26 06:28:42;;;;;;;;;1.00;1.00;;;;;12.65;70.22;100802.91;5054031;28;45493;-62
2022/12/26 06:31:27;;;;;;;;;2.00;0.67;;;;;12.68;70.55;100807.19;5055487;28;45523;-62
2022/12/26 06:33:56;;;;;;;;;1.00;0.00;;;;;12.67;70.22;100805.50;5055445;28;45635;-62
2022/12/26 06:36:24;;;;;;;;;2.33;1.00;;;;;12.72;69.86;100817.56;5055315;28;45622;-62
2022/12/26 06:38:51;;;;;;;;;2.00;2.00;;;;;12.60;70.40;100818.94;5053742;28;45444;-62
2022/12/26 06:41:18;;;;;;;;;1.00;1.00;;;;;12.64;70.32;100832.84;5055188;28;45527;-62
2022/12/26 06:43:44;;;;;;;;;0.67;0.67;;;;;12.66;70.10;100836.31;5055826;28;45536;-62
2022/12/26 06:46:13;;;;;;;;;3.00;1.67;;;;;12.66;70.36;100838.94;5041220;28;45478;-62
2022/12/26 06:48:38;;;;;;;;;0.67;0.67;;;;;12.59;69.92;100838.31;5055320;28;46615;-61
2022/12/26 06:51:05;;;;;;;;;1.33;0.33;;;;;12.65;69.55;100862.75;5055068;28;45539;-62
2022/12/26 06:53:32;;;;;;;;;1.00;1.00;;;;;12.58;70.05;100857.72;5055753;28;45513;-62
2022/12/26 06:56:08;;;;;;;;;1.00;1.00;;;;;12.60;70.50;100861.16;5045563;28;45474;-62
2022/12/26 06:58:34;;;;;;;;;2.00;0.33;;;;;12.63;70.34;100854.91;5050110;28;48256;-62
2022/12/26 07:01:06;;;;;;;;;2.00;1.00;;;;;12.57;70.58;100853.38;5055215;28;45473;-62
2022/12/26 07:03:31;;;;;;;;;1.00;1.00;;;;;12.58;70.32;100855.06;5055002;28;45431;-62
2022/12/26 07:06:02;;;;;;;;;0.00;0.00;;;;;12.52;70.66;100847.41;5053892;28;45570;-62
2022/12/26 07:08:27;;;;;;;;;0.00;0.00;;;;;12.51;70.27;100853.59;5055202;28;46057;-62
2022/12/26 07:10:52;;;;;;;;;1.00;1.00;;;;;12.54;70.02;100864.00;5053693;28;45343;-62
2022/12/26 07:13:18;;;;;;;;;1.00;1.00;;;;;12.51;70.38;100865.94;5055313;28;45478;-62
2022/12/26 07:15:43;;;;;;;;;1.00;1.00;;;;;12.54;70.74;100873.72;5049517;28;45381;-62
2022/12/26 07:18:08;;;;;;;;;0.67;0.67;;;;;12.54;70.75;100871.94;5054805;28;45439;-62
2022/12/26 07:20:33;;;;;;;;;2.00;2.00;;;;;12.56;70.74;100874.53;5043524;28;45493;-61
2022/12/26 07:22:59;;;;;;;;;1.00;1.00;;;;;12.55;70.03;100883.38;5036545;28;45782;-62
2022/12/26 07:25:24;;;;;;;;;3.67;1.33;;;;;12.49;70.34;100878.31;5051713;28;45398;-63
2022/12/26 07:27:53;;;;;;;;;1.33;1.33;;;;;12.50;70.78;100893.25;5054828;28;46452;-63
2022/12/26 07:30:18;;;;;;;;;2.00;1.00;;;;;12.50;70.27;100895.88;5051951;28;45447;-63
2022/12/26 07:32:43;;;;;;;;;1.00;1.00;;;;;12.46;70.67;100888.97;5048921;28;45724;-63
2022/12/26 07:35:09;;;;;;;;;1.33;1.00;;;;;12.37;70.39;100866.47;5053409;28;45470;-63
2022/12/26 07:37:34;;;;;;;;;3.00;2.00;;;;;12.45;70.83;100879.38;5053126;28;45501;-63
2022/12/26 07:39:59;;;;;;;;;2.00;2.00;;;;;12.45;70.24;100890.78;5050139;28;48453;-63
2022/12/26 07:42:25;;;;;;;;;8.33;8.33;;;;;12.45;70.42;100890.78;5048234;28;45528;-63
2022/12/26 07:44:50;;;;;;;;;1.67;1.33;;;;;12.41;70.40;100873.31;5054800;28;45990;-63
2022/12/26 07:47:15;;;;;;;;;3.00;2.00;;;;;12.43;70.63;100891.75;5054413;28;45471;-63
2022/12/26 07:49:41;;;;;;;;;2.00;2.00;;;;;12.43;71.17;100889.97;5053869;28;45469;-63
2022/12/26 07:52:06;;;;;;;;;2.00;2.00;;;;;12.42;71.00;100890.88;5054144;28;45494;-63
2022/12/26 07:54:31;;;;;;;;;3.00;3.00;;;;;12.40;70.92;100905.06;5053152;28;45585;-63
2022/12/26 07:56:57;;;;;;;;;2.00;2.00;;;;;12.41;71.55;100906.75;5040161;28;45999;-63
2022/12/26 07:59:22;;;;;;;;;3.33;2.00;;;;;12.42;71.66;100919.06;5054586;28;45577;-63
2022/12/26 08:01:48;;;;;;;;;2.00;2.00;;;;;12.41;71.17;100917.31;5054372;28;45454;-63
2022/12/26 08:04:13;;;;;;;;;1.33;1.33;;;;;12.45;70.81;100924.22;5054657;28;45686;-63
2022/12/26 08:06:39;;;;;;;;;1.00;1.00;;;;;12.48;70.92;100937.28;5054139;28;46236;-63
2022/12/26 08:09:04;;;;;;;;;2.00;2.00;;;;;12.43;70.99;100924.25;5054117;28;45505;-62
2022/12/26 08:11:32;;;;;;;;;3.00;2.00;;;;;12.43;70.97;100928.69;5048344;28;45760;-63
2022/12/26 08:13:58;;;;;;;;;1.00;1.00;;;;;12.43;70.99;100913.69;5053918;28;45461;-64
2022/12/26 08:16:23;;;;;;;;;2.00;2.00;;;;;12.45;71.62;100934.75;5053963;28;46472;-63
2022/12/26 08:18:48;;;;;;;;;3.00;2.00;;;;;12.46;71.38;100933.81;5039961;28;45453;-63
2022/12/26 08:21:14;;;;;;;;;2.00;2.00;;;;;12.47;71.40;100935.56;5054153;28;45536;-63
2022/12/26 08:23:39;;;;;;;;;1.67;1.67;;;;;12.51;70.86;100938.00;5054072;28;45492;-63
2022/12/26 08:26:07;;;;;;;;;3.00;1.67;;;;;12.52;70.71;100939.75;5053579;28;45543;-63
2022/12/26 08:28:33;;;;;;;;;3.33;2.00;;;;;12.31;71.07;100908.91;5052688;28;45950;-64
2022/12/26 08:30:59;;;;;;;;;2.00;2.00;;;;;12.42;70.99;100929.59;5051460;28;45496;-63
2022/12/26 08:33:24;;;;;;;;;2.33;1.33;;;;;12.51;70.98;100951.19;5053927;28;45419;-63
2022/12/26 08:35:50;;;;;;;;;1.67;1.67;;;;;12.49;71.06;100947.78;5053550;28;45500;-63
2022/12/26 08:38:15;;;;;;;;;0.67;0.33;;;;;12.52;70.65;100950.31;5053776;28;45530;-63
2022/12/26 08:40:40;;;;;;;;;3.00;2.00;;;;;12.57;70.69;100958.91;5053808;28;45598;-67
2022/12/26 08:43:06;;;;;;;;;2.00;2.00;;;;;12.60;69.93;100971.97;5053594;28;45414;-68
2022/12/26 08:45:32;;;;;;;;;2.00;2.00;;;;;12.59;70.09;100975.53;5053419;28;45955;-64
2022/12/26 08:47:58;;;;;;;;;2.33;2.33;;;;;12.63;70.49;100980.69;5053399;28;45509;-67
2022/12/26 08:50:24;;;;;;;;;2.00;2.00;;;;;12.63;70.69;100985.94;5053431;28;45414;-63
2022/12/26 08:52:49;;;;;;;;;4.33;2.00;;;;;12.65;69.80;100992.91;5044479;28;45515;-63
2022/12/26 08:55:15;;;;;;;;;1.33;1.33;;;;;12.67;70.67;100993.69;5050216;28;46069;-63
2022/12/26 08:57:40;;;;;;;;;2.67;2.67;;;;;12.66;69.63;100991.16;5042373;28;45504;-63
2022/12/26 09:00:06;;;;;;;;;2.00;2.00;;;;;12.67;69.86;101006.91;5053831;28;45443;-64
2022/12/26 09:02:32;;;;;;;;;1.33;1.33;;;;;12.65;69.71;100999.97;5055605;28;45453;-63
2022/12/26 09:04:57;;;;;;;;;2.00;2.00;;;;;12.66;70.01;101013.09;5055467;28;47563;-63
2022/12/26 09:07:23;;;;;;;;;4.00;4.00;;;;;12.61;70.10;101001.84;5055704;28;45511;-63
2022/12/26 09:09:49;;;;;;;;;1.00;1.00;;;;;12.67;70.12;101009.53;5057436;28;45528;-64
2022/12/26 09:12:14;;;;;;;;;2.00;2.00;;;;;12.64;69.99;101004.38;5057025;28;45474;-63
2022/12/26 09:14:40;;;;;;;;;2.67;1.33;;;;;12.64;70.39;101020.22;5055632;28;46709;-62
2022/12/26 09:17:05;;;;;;;;;2.33;1.33;;;;;12.61;69.81;101015.06;5056681;28;46995;-63
2022/12/26 09:19:31;;;;;;;;;3.00;3.00;;;;;12.62;69.58;101011.47;5056926;28;45445;-63
2022/12/26 09:24:42;;;;;;;;;2.00;1.00;;;;;12.64;69.93;101029.91;5043672;28;45905;-63
2022/12/26 09:27:08;;;;;;;;;4.00;2.00;;;;;12.61;70.19;101028.25;5056615;28;45781;-63
2022/12/26 09:29:33;;;;;;;;;3.33;2.00;;;;;12.58;70.14;101021.31;5055302;28;45508;-63
2022/12/26 09:31:58;;;;;;;;;2.00;2.00;;;;;12.68;70.31;101040.31;5056766;28;45422;-63
2022/12/26 09:34:24;;;;;;;;;1.00;1.00;;;;;12.68;70.29;101039.41;5054961;28;47378;-63
2022/12/26 09:36:49;;;;;;;;;2.33;2.00;;;;;12.68;69.75;101036.78;5056702;28;45453;-63
2022/12/26 09:39:15;;;;;;;;;2.00;2.00;;;;;12.68;70.22;101037.66;5056278;28;45736;-63
2022/12/26 09:42:06;;;;;;;;;5.00;2.67;;;;;12.71;70.41;101037.56;5056753;28;45438;-63
2022/12/26 09:44:55;;;;;;;;;1.00;1.00;;;;;12.76;70.02;101042.63;5056537;28;45440;-63
2022/12/26 09:47:21;;;;;;;;;2.00;2.00;;;;;12.75;70.29;101046.22;5056450;28;45481;-63
2022/12/26 09:49:58;;;;;;;;;2.00;2.00;;;;;12.76;70.34;101045.28;5056231;28;45494;-63
2022/12/26 09:52:46;;;;;;;;;1.00;1.00;;;;;12.76;70.22;101053.19;5051601;28;45405;-63
2022/12/26 09:55:24;;;;;;;;;2.67;1.33;;;;;12.71;70.08;101063.94;5045628;28;46261;-63
2022/12/26 09:57:51;;;;;;;;;2.00;2.00;;;;;12.73;70.49;101062.09;5045999;28;45563;-63
2022/12/26 10:00:37;;;;;;;;;1.00;1.00;;;;;12.74;70.43;101065.59;5056278;28;45498;-63
2022/12/26 10:03:03;;;;;;;;;1.00;1.00;;;;;12.71;70.33;101055.16;5054809;28;45418;-63
2022/12/26 10:05:37;;;;;;;;;2.00;2.00;;;;;12.73;70.14;101051.53;5055530;28;46299;-63
2022/12/26 10:08:42;;;;;;;;;1.33;1.33;;;;;12.72;69.85;101068.28;5056137;28;45417;-63
2022/12/26 10:11:17;;;;;;;;;1.67;1.67;;;;;12.63;70.09;101046.66;5048361;28;45700;-63
2022/12/26 10:13:55;;;;;;;;;2.00;1.00;;;;;12.66;70.20;101051.84;5055149;28;45467;-63
2022/12/26 10:16:39;;;;;;;;;4.00;2.33;;;;;12.70;69.91;101050.78;5055984;28;45529;-63
2022/12/26 10:19:20;;;;;;;;;3.67;3.00;;;;;12.76;69.62;101062.00;5055881;28;45371;-64
2022/12/26 10:22:09;;;;;;;;;6.33;6.33;;;;;12.74;69.49;101057.69;5054608;28;45537;-63
2022/12/26 10:24:37;;;;;;;;;2.67;1.67;;;;;12.72;70.25;101055.09;5055928;28;45492;-63
2022/12/26 10:27:11;;;;;;;;;1.33;1.33;;;;;12.74;69.87;101057.69;5054463;28;45665;-63
2022/12/26 10:29:41;;;;;;;;;9.67;9.67;;;;;12.78;69.82;101064.56;5055822;28;45525;-63
2022/12/26 10:32:19;;;;;;;;;6.33;4.33;;;;;12.78;69.91;101059.28;5054370;28;45597;-63
2022/12/26 10:34:47;;;;;;;;;3.33;2.00;;;;;12.78;69.95;101054.84;5055593;28;45449;-63
2022/12/26 10:37:15;;;;;;;;;1.00;1.00;;;;;12.82;69.77;101055.63;5055666;28;45498;-63
2022/12/26 10:40:15;;;;;;;;;2.33;2.33;;;;;12.81;69.85;101054.78;5052344;28;45456;-63
2022/12/26 10:42:49;;;;;;;;;6.00;6.00;;;;;12.81;69.87;101053.88;5042969;28;45513;-63
2022/12/26 10:45:17;;;;;;;;;0.00;0.00;;;;;12.85;69.21;101066.06;5055668;28;45581;-63
2022/12/26 10:47:48;;;;;;;;;1.00;1.00;;;;;12.77;69.75;101063.72;5055262;28;45596;-63
2022/12/26 10:50:21;;;;;;;;;1.00;1.00;;;;;12.85;69.87;101059.94;5055305;28;45497;-63
2022/12/26 10:52:47;;;;;;;;;1.00;1.00;;;;;12.77;69.46;101057.56;5055064;28;45526;-63
2022/12/26 10:55:14;;;;;;;;;1.00;1.00;;;;;12.76;70.02;101056.72;5052136;28;45426;-63
2022/12/26 10:57:41;;;;;;;;;1.00;1.00;;;;;12.81;69.67;101072.38;5043779;28;45481;-63
2022/12/26 11:00:18;;;;;;;;;1.00;1.00;;;;;12.79;69.57;101067.16;5054605;28;45445;-63
2022/12/26 11:02:43;;;;;;;;;2.33;2.33;;;;;12.82;69.82;101066.19;5055336;28;45521;-63
2022/12/26 11:05:11;;;;;;;;;4.00;4.00;;;;;12.87;69.73;101071.28;5055108;28;45550;-63
2022/12/26 11:07:49;;;;;;;;;3.00;3.00;;;;;12.87;69.24;101072.16;5053743;28;47583;-63
2022/12/26 11:10:25;;;;;;;;;9.00;6.33;;;;;12.89;69.89;101072.94;5040564;28;45438;-63
2022/12/26 11:12:53;;;;;;;;;2.00;1.00;;;;;12.88;69.92;101075.66;5054628;28;45438;-63
2022/12/26 11:15:21;;;;;;;;;2.00;2.00;;;;;12.87;69.76;101080.06;5043690;28;45574;-63
2022/12/26 11:17:49;;;;;;;;;2.00;2.00;;;;;12.86;69.73;101075.69;5054985;28;46079;-63
2022/12/26 11:20:15;;;;;;;;;0.00;0.00;;;;;12.89;69.24;101072.09;5055088;28;45569;-63
2022/12/26 11:22:41;;;;;;;;;2.00;1.00;;;;;12.87;69.37;101071.28;5055291;28;45541;-63
2022/12/26 11:25:06;;;;;;;;;3.00;2.00;;;;;12.92;69.64;101077.25;5053701;28;45513;-62
2022/12/26 11:27:32;;;;;;;;;1.00;1.00;;;;;12.89;69.41;101072.09;5054734;28;46611;-63
2022/12/26 11:30:13;;;;;;;;;6.00;4.67;;;;;12.88;69.92;101065.09;5055036;28;45500;-63
2022/12/26 11:32:41;;;;;;;;;3.00;3.00;;;;;12.92;69.37;101069.31;5054779;28;45386;-63
2022/12/26 11:35:19;;;;;;;;;3.00;2.00;;;;;12.91;69.44;101059.69;5055122;28;45482;-63
2022/12/26 11:37:47;;;;;;;;;4.00;4.00;;;;;12.96;69.46;101073.59;5054807;28;46647;-63
2022/12/26 11:40:20;;;;;;;;;4.00;4.00;;;;;12.96;69.42;101058.59;5049726;28;45492;-63
2022/12/26 11:42:56;;;;;;;;;5.33;5.33;;;;;12.98;68.85;101075.25;5054619;28;45551;-63
2022/12/26 11:45:25;;;;;;;;;1.00;1.00;;;;;12.98;68.65;101075.25;5054090;28;45436;-63
2022/12/26 11:47:54;;;;;;;;;1.67;1.33;;;;;12.94;68.65;101067.50;5054381;28;46707;-62
2022/12/26 11:50:21;;;;;;;;;3.00;3.00;;;;;13.06;68.62;101082.88;5054181;28;45367;-64
2022/12/26 11:52:54;;;;;;;;;1.33;1.33;;;;;13.04;68.44;101096.13;5054431;28;45458;-63
2022/12/26 11:55:32;;;;;;;;;3.00;3.00;;;;;13.04;68.95;101090.00;5050667;28;45627;-65
2022/12/26 11:58:07;;;;;;;;;2.00;2.00;;;;;13.07;68.24;101084.59;5043338;28;45438;-65
2022/12/26 12:00:38;;;;;;;;;3.33;3.33;;;;;13.07;67.78;101089.03;5048512;28;45513;-65
2022/12/26 12:03:11;;;;;;;;;4.00;4.00;;;;;13.10;67.82;101092.41;5034937;28;45464;-64
2022/12/26 12:05:51;;;;;;;;;2.00;2.00;;;;;13.12;67.81;101087.06;5041200;28;45609;-65
2022/12/26 12:08:45;;;;;;;;;2.00;2.00;;;;;13.11;67.17;101074.75;5053197;28;46285;-65
2022/12/26 12:11:31;;;;;;;;;3.00;2.00;;;;;13.12;66.90;101080.00;5049694;28;45477;-64
2022/12/26 12:14:34;;;;;;;;;4.00;4.00;;;;;13.11;66.87;101072.13;5050393;28;45465;-64
2022/12/26 12:17:06;;;;;;;;;2.00;2.00;;;;;13.09;66.15;101100.41;5048208;28;45524;-64
2022/12/26 12:19:40;;;;;;;;;0.67;0.67;;;;;13.04;65.68;101092.63;5040790;28;46307;-65
2022/12/26 12:22:22;;;;;;;;;1.00;1.00;;;;;12.99;65.42;101097.22;5049770;28;45520;-65
2022/12/26 12:25:20;;;;;;;;;0.00;0.00;;;;;12.82;64.93;101106.63;5043044;28;45482;-63
2022/12/26 12:27:55;;;;;;;;;0.00;0.00;;;;;12.70;65.74;101093.88;5052817;28;45415;-64
2022/12/26 12:30:41;;;;;;;;;0.00;0.00;;;;;12.72;66.03;101118.44;5048580;28;45598;-64
2022/12/26 12:33:14;;;;;;;;;0.00;0.00;;;;;12.70;67.05;101129.97;5042709;28;45529;-66
2022/12/26 12:35:56;;;;;;;;;0.00;0.00;;;;;12.62;67.60;101138.16;5045202;28;45528;-65
2022/12/26 12:38:30;;;;;;;;;2.00;1.00;;;;;12.58;68.34;101136.56;5048054;28;45450;-64
2022/12/26 12:41:16;;;;;;;;;1.00;1.00;;;;;12.52;69.35;101139.38;5045022;28;45513;-64
2022/12/26 12:44:03;;;;;;;;;0.00;0.00;;;;;12.46;69.67;101143.09;5047871;28;45536;-64
2022/12/26 12:46:34;;;;;;;;;2.00;2.00;;;;;12.46;69.63;101151.00;5057594;28;45445;-64
2022/12/26 12:49:40;;;;;;;;;0.00;0.00;;;;;12.41;70.43;101155.56;5057603;28;45509;-64
2022/12/26 12:52:33;;;;;;;;;1.67;1.67;;;;;12.37;70.54;101153.97;5050914;28;45485;-65
2022/12/26 12:55:08;;;;;;;;;1.33;1.33;;;;;12.33;69.84;101163.78;5051581;28;45601;-64
2022/12/26 12:58:03;;;;;;;;;1.00;1.00;;;;;12.21;70.81;101155.41;5050720;28;45536;-62
2022/12/26 13:00:39;;;;;;;;;0.00;0.00;;;;;12.10;70.95;101159.25;5053707;28;45458;-63
2022/12/26 13:03:26;;;;;;;;;1.33;1.00;;;;;12.05;69.96;101165.59;5041153;28;45534;-63
2022/12/26 13:06:02;;;;;;;;;0.33;0.33;;;;;11.96;69.66;101160.63;5043239;28;45498;-62
2022/12/26 13:08:33;;;;;;;;;3.33;0.00;;;;;11.97;68.87;101173.75;5057441;28;45528;-63
2022/12/26 13:11:12;;;;;;;;;0.00;0.00;;;;;11.99;69.32;101176.34;5043608;28;45583;-62
2022/12/26 13:13:53;;;;;;;;;0.67;0.67;;;;;11.98;68.45;101167.53;5057075;28;45559;-63
2022/12/26 13:16:27;;;;;;;;;1.00;1.00;;;;;11.94;66.80;101169.41;5051013;28;45446;-64
2022/12/26 13:19:00;;;;;;;;;1.00;1.00;;;;;11.92;65.29;101171.25;5051844;28;45564;-63
2022/12/26 13:21:30;;;;;;;;;4.00;2.00;;;;;11.92;64.60;101179.16;5054846;28;45570;-63
2022/12/26 13:27:16;;;;;;;;;1.00;1.00;;;;;11.96;63.36;101179.06;5052286;28;45460;-63
2022/12/26 13:29:44;;;;;;;;;0.00;0.00;;;;;11.97;62.69;101196.59;5042971;28;45494;-63
2022/12/26 13:32:20;;;;;;;;;0.00;0.00;;;;;11.94;63.28;101179.09;5046712;28;45570;-64
2022/12/26 13:34:46;;;;;;;;;1.00;1.00;;;;;11.95;63.03;101170.28;5042706;28;46399;-64
2022/12/26 13:37:54;;;;;;;;;0.33;0.33;;;;;11.98;60.07;101188.63;5055205;28;45781;-64
2022/12/26 13:40:25;;;;;;;;;0.00;0.00;;;;;11.92;60.42;101175.66;5044243;28;45456;-64
2022/12/26 13:45:39;;;;;;;;;0.67;0.67;;;;;12.00;60.66;101183.31;5050627;28;45791;-64
2022/12/26 13:48:13;;;;;;;;;0.00;0.00;;;;;12.04;61.04;101190.25;5053494;28;45381;-65
2022/12/26 13:50:50;;;;;;;;;0.00;0.00;;;;;12.01;60.36;101195.56;5056397;28;45507;-64
2022/12/26 13:53:24;;;;;;;;;1.00;1.00;;;;;12.07;59.61;101196.25;5056552;28;45561;-64
2022/12/26 13:56:03;;;;;;;;;1.00;1.00;;;;;12.02;58.64;101203.44;5046346;28;47375;-64
2022/12/26 13:58:53;;;;;;;;;2.33;1.00;;;;;12.00;58.90;101210.53;5051973;28;45497;-64